フェニックス の空港の天気 - METARとTAF

フェニックス・スカイハーバー国際空港 ( KPHX / PHX ) - アメリカ アリゾナ州フェニックス
飛行場実況気象(Metar)
観測時間09/22 10:51 MST (09/22 17:51 UTC)
風向・風速東 4m/s
視程10km以上
天気現象
少しの雲 雲底高度 3350m
全天の4割程度の雲 雲底高度 4270m
全天の8割程度の雲 雲底高度 5180m
気温32.8℃
湿度30%
気圧1013.2hPa
METARKPHX 221751Z 10008KT 10SM FEW110 SCT140 BKN170 33/13 A2998 RMK AO2 SLP132 SHRA DSNT E-S 60000 T03280128 10328 20289 56004
過去の天気等 Google飛行場航空写真 Wunderground天気予報

過去48時間のMETAR

飛行場予報(TAF)
発表時間: 9/22 10:21 MST (9/22 17:21 UTC)
予報対象時間: 22日11時 MST ~ 23日17時 MST
風向・風速南東 3m/s
視程10km以上
全天の8割程度の雲 雲底高度 3660m
22日13時 MST から
風向・風速西 5m/s
視程10km以上
全天の4割程度の雲 雲底高度 4270m
22日23時 MST から
風向・風速西 3m/s
視程10km以上
少しの雲 雲底高度 4570m
23日5時 MST から
風向・風速東南東 3m/s
視程10km以上
なし
23日14時 MST から
風向・風速西 3m/s
視程10km以上
なし
KPHX 221721Z 2218/2324 13005KT P6SM BKN120
FM222000 27009KT P6SM SCT140
FM230600 28005KT P6SM FEW150
FM231200 11005KT P6SM SKC
FM232100 27006KT P6SM SKC